sensor_id;sensor_type;location;lat;lon;timestamp;pressure;altitude;pressure_sealevel;temperature;humidity
51297;BME280;37380;45.186;9.792;2024-01-06T00:02:21;99804.66;;;5.14;95.12
51297;BME280;37380;45.186;9.792;2024-01-06T00:04:48;99802.63;;;5.09;94.90
51297;BME280;37380;45.186;9.792;2024-01-06T00:07:15;99801.22;;;5.19;94.93
51297;BME280;37380;45.186;9.792;2024-01-06T00:09:42;99791.41;;;5.18;94.06
51297;BME280;37380;45.186;9.792;2024-01-06T00:12:09;99788.06;;;5.09;94.33
51297;BME280;37380;45.186;9.792;2024-01-06T00:14:37;99784.06;;;5.10;94.29
51297;BME280;37380;45.186;9.792;2024-01-06T00:17:04;99777.44;;;5.02;94.11
51297;BME280;37380;45.186;9.792;2024-01-06T00:19:31;99767.34;;;4.93;94.48
51297;BME280;37380;45.186;9.792;2024-01-06T00:21:58;99762.75;;;4.85;94.21
51297;BME280;37380;45.186;9.792;2024-01-06T00:24:27;99763.28;;;4.89;95.13
51297;BME280;37380;45.186;9.792;2024-01-06T00:26:54;99763.03;;;4.87;94.92
51297;BME280;37380;45.186;9.792;2024-01-06T00:29:21;99770.28;;;4.84;94.64
51297;BME280;37380;45.186;9.792;2024-01-06T00:31:48;99772.53;;;4.86;94.93
51297;BME280;37380;45.186;9.792;2024-01-06T00:34:15;99774.22;;;4.78;94.73
51297;BME280;37380;45.186;9.792;2024-01-06T00:36:42;99770.53;;;4.86;95.14
51297;BME280;37380;45.186;9.792;2024-01-06T00:39:09;99780.75;;;4.80;95.23
51297;BME280;37380;45.186;9.792;2024-01-06T00:41:36;99784.25;;;4.81;94.84
51297;BME280;37380;45.186;9.792;2024-01-06T00:44:03;99781.06;;;4.88;94.94
51297;BME280;37380;45.186;9.792;2024-01-06T00:46:30;99790.28;;;4.79;94.61
51297;BME280;37380;45.186;9.792;2024-01-06T00:48:57;99790.63;;;4.87;94.41
51297;BME280;37380;45.186;9.792;2024-01-06T00:51:24;99782.81;;;4.85;94.99
51297;BME280;37380;45.186;9.792;2024-01-06T00:53:51;99778.59;;;4.90;95.16
51297;BME280;37380;45.186;9.792;2024-01-06T00:56:18;99781.72;;;4.77;94.77
51297;BME280;37380;45.186;9.792;2024-01-06T00:58:45;99786.50;;;4.76;94.48
51297;BME280;37380;45.186;9.792;2024-01-06T01:01:12;99783.47;;;4.74;94.65
51297;BME280;37380;45.186;9.792;2024-01-06T01:03:40;99770.38;;;4.69;95.31
51297;BME280;37380;45.186;9.792;2024-01-06T01:06:07;99759.75;;;4.62;95.09
51297;BME280;37380;45.186;9.792;2024-01-06T01:08:35;99758.81;;;4.65;95.43
51297;BME280;37380;45.186;9.792;2024-01-06T01:11:03;99741.00;;;4.66;95.03
51297;BME280;37380;45.186;9.792;2024-01-06T01:13:30;99739.00;;;4.67;95.28
51297;BME280;37380;45.186;9.792;2024-01-06T01:15:57;99740.78;;;4.70;95.66
51297;BME280;37380;45.186;9.792;2024-01-06T01:18:24;99745.00;;;4.65;95.08
51297;BME280;37380;45.186;9.792;2024-01-06T01:20:51;99742.38;;;4.56;94.80
51297;BME280;37380;45.186;9.792;2024-01-06T01:23:18;99747.63;;;4.54;95.22
51297;BME280;37380;45.186;9.792;2024-01-06T01:25:45;99748.03;;;4.67;94.88
51297;BME280;37380;45.186;9.792;2024-01-06T01:28:12;99748.16;;;4.78;95.38
51297;BME280;37380;45.186;9.792;2024-01-06T01:30:39;99747.97;;;4.62;94.82
51297;BME280;37380;45.186;9.792;2024-01-06T01:33:06;99753.72;;;4.58;94.91
51297;BME280;37380;45.186;9.792;2024-01-06T01:35:35;99756.75;;;4.60;95.05
51297;BME280;37380;45.186;9.792;2024-01-06T01:38:02;99759.09;;;4.73;95.35
51297;BME280;37380;45.186;9.792;2024-01-06T01:40:29;99754.53;;;4.64;94.94
51297;BME280;37380;45.186;9.792;2024-01-06T01:42:56;99752.47;;;4.59;94.82
51297;BME280;37380;45.186;9.792;2024-01-06T01:45:23;99749.81;;;4.70;95.22
51297;BME280;37380;45.186;9.792;2024-01-06T01:47:50;99744.88;;;4.54;95.01
51297;BME280;37380;45.186;9.792;2024-01-06T01:50:18;99739.63;;;4.56;95.23
51297;BME280;37380;45.186;9.792;2024-01-06T01:52:46;99746.41;;;4.55;95.15
51297;BME280;37380;45.186;9.792;2024-01-06T01:55:14;99751.50;;;4.62;95.51
51297;BME280;37380;45.186;9.792;2024-01-06T01:57:41;99745.28;;;4.67;95.20
51297;BME280;37380;45.186;9.792;2024-01-06T02:00:08;99742.78;;;4.69;94.83
51297;BME280;37380;45.186;9.792;2024-01-06T02:02:39;99738.03;;;4.70;94.82
51297;BME280;37380;45.186;9.792;2024-01-06T02:05:06;99739.44;;;4.60;95.25
51297;BME280;37380;45.186;9.792;2024-01-06T02:07:33;99742.13;;;4.54;95.24
51297;BME280;37380;45.186;9.792;2024-01-06T02:10:00;99745.56;;;4.69;94.89
51297;BME280;37380;45.186;9.792;2024-01-06T02:12:27;99741.50;;;4.65;95.43
51297;BME280;37380;45.186;9.792;2024-01-06T02:14:54;99747.81;;;4.71;95.08
51297;BME280;37380;45.186;9.792;2024-01-06T02:17:21;99739.34;;;4.74;95.05
51297;BME280;37380;45.186;9.792;2024-01-06T02:19:48;99739.44;;;4.60;94.70
51297;BME280;37380;45.186;9.792;2024-01-06T02:22:16;99748.31;;;4.69;94.78
51297;BME280;37380;45.186;9.792;2024-01-06T02:24:43;99742.25;;;4.65;95.01
51297;BME280;37380;45.186;9.792;2024-01-06T02:27:10;99734.69;;;4.60;94.95
51297;BME280;37380;45.186;9.792;2024-01-06T02:29:37;99730.19;;;4.63;95.15
51297;BME280;37380;45.186;9.792;2024-01-06T02:32:04;99736.75;;;4.65;95.26
51297;BME280;37380;45.186;9.792;2024-01-06T02:34:31;99736.19;;;4.61;94.68
51297;BME280;37380;45.186;9.792;2024-01-06T02:36:59;99730.66;;;4.61;94.95
51297;BME280;37380;45.186;9.792;2024-01-06T02:39:26;99732.97;;;4.63;95.42
51297;BME280;37380;45.186;9.792;2024-01-06T02:41:53;99735.09;;;4.53;95.05
51297;BME280;37380;45.186;9.792;2024-01-06T02:44:20;99728.91;;;4.58;95.17
51297;BME280;37380;45.186;9.792;2024-01-06T02:46:47;99734.69;;;4.60;95.32
51297;BME280;37380;45.186;9.792;2024-01-06T02:49:14;99732.97;;;4.63;95.44
51297;BME280;37380;45.186;9.792;2024-01-06T02:51:44;99733.66;;;4.58;94.96
51297;BME280;37380;45.186;9.792;2024-01-06T02:54:11;99727.66;;;4.59;95.22
51297;BME280;37380;45.186;9.792;2024-01-06T02:56:38;99723.91;;;4.62;95.30
51297;BME280;37380;45.186;9.792;2024-01-06T02:59:05;99714.69;;;4.65;95.52
51297;BME280;37380;45.186;9.792;2024-01-06T03:01:32;99715.53;;;4.51;94.82
51297;BME280;37380;45.186;9.792;2024-01-06T03:03:59;99716.09;;;4.55;95.37
51297;BME280;37380;45.186;9.792;2024-01-06T03:06:27;99709.31;;;4.56;95.28
51297;BME280;37380;45.186;9.792;2024-01-06T03:08:54;99712.41;;;4.64;94.70
51297;BME280;37380;45.186;9.792;2024-01-06T03:11:21;99702.03;;;4.53;94.80
51297;BME280;37380;45.186;9.792;2024-01-06T03:13:49;99695.66;;;4.67;95.76
51297;BME280;37380;45.186;9.792;2024-01-06T03:16:17;99700.06;;;4.59;94.78
51297;BME280;37380;45.186;9.792;2024-01-06T03:18:44;99698.78;;;4.55;94.82
51297;BME280;37380;45.186;9.792;2024-01-06T03:21:17;99699.47;;;4.50;94.95
51297;BME280;37380;45.186;9.792;2024-01-06T03:23:46;99693.97;;;4.50;95.14
51297;BME280;37380;45.186;9.792;2024-01-06T03:26:13;99695.53;;;4.56;95.26
51297;BME280;37380;45.186;9.792;2024-01-06T03:28:40;99688.94;;;4.48;95.12
51297;BME280;37380;45.186;9.792;2024-01-06T03:31:07;99687.41;;;4.47;95.58
51297;BME280;37380;45.186;9.792;2024-01-06T03:33:34;99692.22;;;4.52;95.49
51297;BME280;37380;45.186;9.792;2024-01-06T03:36:05;99688.50;;;4.55;95.33
51297;BME280;37380;45.186;9.792;2024-01-06T03:38:33;99692.06;;;4.61;95.20
51297;BME280;37380;45.186;9.792;2024-01-06T03:41:00;99699.97;;;4.48;95.14
51297;BME280;37380;45.186;9.792;2024-01-06T03:43:27;99696.81;;;4.61;95.10
51297;BME280;37380;45.186;9.792;2024-01-06T03:45:54;99691.81;;;4.59;95.56
51297;BME280;37380;45.186;9.792;2024-01-06T03:48:23;99683.69;;;4.50;94.76
51297;BME280;37380;45.186;9.792;2024-01-06T03:50:50;99680.69;;;4.48;95.17
51297;BME280;37380;45.186;9.792;2024-01-06T03:53:17;99677.66;;;4.46;95.27
51297;BME280;37380;45.186;9.792;2024-01-06T03:55:44;99665.59;;;4.44;95.83
51297;BME280;37380;45.186;9.792;2024-01-06T03:58:11;99658.63;;;4.48;95.61
51297;BME280;37380;45.186;9.792;2024-01-06T04:00:38;99649.78;;;4.44;95.91
51297;BME280;37380;45.186;9.792;2024-01-06T04:03:05;99646.78;;;4.42;96.27
51297;BME280;37380;45.186;9.792;2024-01-06T04:05:33;99648.56;;;4.45;95.85
51297;BME280;37380;45.186;9.792;2024-01-06T04:08:00;99663.00;;;4.60;95.96
51297;BME280;37380;45.186;9.792;2024-01-06T04:10:27;99660.78;;;4.64;95.93
51297;BME280;37380;45.186;9.792;2024-01-06T04:12:54;99661.75;;;4.61;95.47
51297;BME280;37380;45.186;9.792;2024-01-06T04:15:21;99657.84;;;4.73;95.42
51297;BME280;37380;45.186;9.792;2024-01-06T04:17:49;99659.56;;;4.71;95.08
51297;BME280;37380;45.186;9.792;2024-01-06T04:20:16;99656.81;;;4.71;95.01
51297;BME280;37380;45.186;9.792;2024-01-06T04:22:43;99663.59;;;4.70;94.96
51297;BME280;37380;45.186;9.792;2024-01-06T04:25:11;99666.81;;;4.68;94.59
51297;BME280;37380;45.186;9.792;2024-01-06T04:27:38;99665.78;;;4.66;94.67
51297;BME280;37380;45.186;9.792;2024-01-06T04:30:05;99669.09;;;4.70;94.69
51297;BME280;37380;45.186;9.792;2024-01-06T04:32:33;99674.75;;;4.61;94.62
51297;BME280;37380;45.186;9.792;2024-01-06T04:35:00;99667.53;;;4.63;94.71
51297;BME280;37380;45.186;9.792;2024-01-06T04:37:27;99657.94;;;4.53;94.57
51297;BME280;37380;45.186;9.792;2024-01-06T04:39:54;99669.38;;;4.72;94.29
51297;BME280;37380;45.186;9.792;2024-01-06T04:42:21;99662.78;;;4.64;94.30
51297;BME280;37380;45.186;9.792;2024-01-06T04:44:49;99667.53;;;4.63;94.24
51297;BME280;37380;45.186;9.792;2024-01-06T04:47:16;99662.00;;;4.63;94.04
51297;BME280;37380;45.186;9.792;2024-01-06T04:49:44;99665.25;;;4.62;94.33
51297;BME280;37380;45.186;9.792;2024-01-06T04:52:12;99658.97;;;4.61;94.10
51297;BME280;37380;45.186;9.792;2024-01-06T04:54:39;99662.56;;;4.67;93.91
51297;BME280;37380;45.186;9.792;2024-01-06T04:57:06;99656.50;;;4.63;94.45
51297;BME280;37380;45.186;9.792;2024-01-06T04:59:33;99653.69;;;4.58;94.16
51297;BME280;37380;45.186;9.792;2024-01-06T05:02:00;99654.91;;;4.51;94.10
51297;BME280;37380;45.186;9.792;2024-01-06T05:04:27;99646.53;;;4.71;94.32
51297;BME280;37380;45.186;9.792;2024-01-06T05:06:54;99653.59;;;4.72;93.82
51297;BME280;37380;45.186;9.792;2024-01-06T05:09:22;99649.03;;;4.69;93.65
51297;BME280;37380;45.186;9.792;2024-01-06T05:11:49;99651.31;;;4.71;94.21
51297;BME280;37380;45.186;9.792;2024-01-06T05:14:16;99644.72;;;4.63;93.27
51297;BME280;37380;45.186;9.792;2024-01-06T05:16:43;99647.56;;;4.74;93.46
51297;BME280;37380;45.186;9.792;2024-01-06T05:19:10;99654.31;;;4.73;93.57
51297;BME280;37380;45.186;9.792;2024-01-06T05:21:37;99648.50;;;4.65;93.55
51297;BME280;37380;45.186;9.792;2024-01-06T05:24:04;99641.53;;;4.70;93.70
51297;BME280;37380;45.186;9.792;2024-01-06T05:26:32;99642.44;;;4.61;94.10
51297;BME280;37380;45.186;9.792;2024-01-06T05:28:59;99646.03;;;4.67;93.62
51297;BME280;37380;45.186;9.792;2024-01-06T05:31:26;99646.72;;;4.62;93.97
51297;BME280;37380;45.186;9.792;2024-01-06T05:33:53;99636.94;;;4.61;93.97
51297;BME280;37380;45.186;9.792;2024-01-06T05:36:20;99643.53;;;4.69;94.10
51297;BME280;37380;45.186;9.792;2024-01-06T05:38:47;99649.41;;;4.57;94.41
51297;BME280;37380;45.186;9.792;2024-01-06T05:41:18;99644.88;;;4.54;94.29
51297;BME280;37380;45.186;9.792;2024-01-06T05:43:45;99651.97;;;4.60;94.48
51297;BME280;37380;45.186;9.792;2024-01-06T05:46:24;99644.50;;;4.66;94.29
51297;BME280;37380;45.186;9.792;2024-01-06T05:48:52;99647.88;;;4.50;94.44
51297;BME280;37380;45.186;9.792;2024-01-06T05:51:19;99632.41;;;4.58;94.44
51297;BME280;37380;45.186;9.792;2024-01-06T05:53:46;99632.84;;;4.51;94.78
51297;BME280;37380;45.186;9.792;2024-01-06T05:56:26;99635.31;;;4.49;94.50
51297;BME280;37380;45.186;9.792;2024-01-06T05:58:54;99646.91;;;4.53;94.86
51297;BME280;37380;45.186;9.792;2024-01-06T06:01:20;99647.44;;;4.57;95.08
51297;BME280;37380;45.186;9.792;2024-01-06T06:03:50;99646.91;;;4.53;94.61
51297;BME280;37380;45.186;9.792;2024-01-06T06:06:18;99633.38;;;4.55;94.74
51297;BME280;37380;45.186;9.792;2024-01-06T06:08:45;99641.66;;;4.55;94.97
51297;BME280;37380;45.186;9.792;2024-01-06T06:11:12;99649.69;;;4.59;94.57
51297;BME280;37380;45.186;9.792;2024-01-06T06:13:40;99640.25;;;4.65;94.74
51297;BME280;37380;45.186;9.792;2024-01-06T06:16:11;99636.41;;;4.57;94.34
51297;BME280;37380;45.186;9.792;2024-01-06T06:18:41;99626.13;;;4.58;94.92
51297;BME280;37380;45.186;9.792;2024-01-06T06:21:08;99628.91;;;4.63;95.09
51297;BME280;37380;45.186;9.792;2024-01-06T06:23:36;99622.88;;;4.59;95.34
51297;BME280;37380;45.186;9.792;2024-01-06T06:26:05;99622.44;;;4.66;95.45
51297;BME280;37380;45.186;9.792;2024-01-06T06:28:32;99617.38;;;4.91;95.30
51297;BME280;37380;45.186;9.792;2024-01-06T06:31:00;99621.22;;;4.73;93.63
51297;BME280;37380;45.186;9.792;2024-01-06T06:33:28;99631.28;;;4.76;94.36
51297;BME280;37380;45.186;9.792;2024-01-06T06:35:55;99626.53;;;4.76;94.27
51297;BME280;37380;45.186;9.792;2024-01-06T06:38:22;99626.16;;;4.63;94.38
51297;BME280;37380;45.186;9.792;2024-01-06T06:40:49;99634.31;;;4.78;94.42
51297;BME280;37380;45.186;9.792;2024-01-06T06:43:16;99633.47;;;4.66;94.43
51297;BME280;37380;45.186;9.792;2024-01-06T06:45:45;99628.44;;;4.65;94.24
51297;BME280;37380;45.186;9.792;2024-01-06T06:48:13;99632.19;;;4.62;95.03
51297;BME280;37380;45.186;9.792;2024-01-06T06:50:40;99636.94;;;4.61;94.82
51297;BME280;37380;45.186;9.792;2024-01-06T06:53:08;99631.66;;;4.58;94.71
51297;BME280;37380;45.186;9.792;2024-01-06T06:55:35;99626.91;;;4.58;94.85
51297;BME280;37380;45.186;9.792;2024-01-06T06:58:05;99619.34;;;4.59;94.78
51297;BME280;37380;45.186;9.792;2024-01-06T07:00:32;99619.16;;;4.62;94.84
51297;BME280;37380;45.186;9.792;2024-01-06T07:03:00;99629.78;;;4.75;95.37
51297;BME280;37380;45.186;9.792;2024-01-06T07:05:27;99644.59;;;4.78;94.79
51297;BME280;37380;45.186;9.792;2024-01-06T07:07:55;99643.09;;;4.76;94.26
51297;BME280;37380;45.186;9.792;2024-01-06T07:10:22;99646.09;;;4.78;94.05
51297;BME280;37380;45.186;9.792;2024-01-06T07:12:49;99654.03;;;4.65;94.57
51297;BME280;37380;45.186;9.792;2024-01-06T07:15:16;99649.56;;;4.73;94.95
51297;BME280;37380;45.186;9.792;2024-01-06T07:17:43;99641.78;;;4.72;94.84
51297;BME280;37380;45.186;9.792;2024-01-06T07:20:11;99652.81;;;4.72;94.49
51297;BME280;37380;45.186;9.792;2024-01-06T07:22:38;99657.66;;;4.83;94.46
51297;BME280;37380;45.186;9.792;2024-01-06T07:25:05;99653.84;;;4.74;94.09
51297;BME280;37380;45.186;9.792;2024-01-06T07:27:34;99653.59;;;4.72;94.79
51297;BME280;37380;45.186;9.792;2024-01-06T07:30:01;99654.13;;;4.76;94.33
51297;BME280;37380;45.186;9.792;2024-01-06T07:32:29;99655.31;;;4.70;94.61
51297;BME280;37380;45.186;9.792;2024-01-06T07:34:56;99657.06;;;4.73;95.02
51297;BME280;37380;45.186;9.792;2024-01-06T07:37:23;99661.38;;;4.74;94.76
51297;BME280;37380;45.186;9.792;2024-01-06T07:39:50;99662.81;;;4.69;94.84
51297;BME280;37380;45.186;9.792;2024-01-06T07:42:18;99664.81;;;4.69;94.86
51297;BME280;37380;45.186;9.792;2024-01-06T07:44:45;99661.16;;;4.78;95.02
51297;BME280;37380;45.186;9.792;2024-01-06T07:47:12;99670.13;;;4.72;94.89
51297;BME280;37380;45.186;9.792;2024-01-06T07:49:39;99660.16;;;4.81;95.04
51297;BME280;37380;45.186;9.792;2024-01-06T07:52:06;99667.91;;;4.76;94.92
51297;BME280;37380;45.186;9.792;2024-01-06T07:54:33;99659.44;;;4.86;94.75
51297;BME280;37380;45.186;9.792;2024-01-06T07:57:00;99666.00;;;4.88;94.33
51297;BME280;37380;45.186;9.792;2024-01-06T07:59:27;99670.75;;;4.88;95.25
51297;BME280;37380;45.186;9.792;2024-01-06T08:02:46;99674.78;;;4.87;94.32
51297;BME280;37380;45.186;9.792;2024-01-06T08:05:13;99677.03;;;4.88;94.36
51297;BME280;37380;45.186;9.792;2024-01-06T08:07:41;99684.72;;;4.78;94.47
51297;BME280;37380;45.186;9.792;2024-01-06T08:10:08;99692.28;;;4.84;94.90
51297;BME280;37380;45.186;9.792;2024-01-06T08:12:35;99681.47;;;4.80;94.84
51297;BME280;37380;45.186;9.792;2024-01-06T08:15:03;99688.94;;;4.74;94.84
51297;BME280;37380;45.186;9.792;2024-01-06T08:17:31;99691.09;;;4.64;95.22
51297;BME280;37380;45.186;9.792;2024-01-06T08:19:58;99685.31;;;4.62;94.79
51297;BME280;37380;45.186;9.792;2024-01-06T08:22:26;99680.34;;;4.66;95.22
51297;BME280;37380;45.186;9.792;2024-01-06T08:24:53;99678.13;;;4.70;95.38
51297;BME280;37380;45.186;9.792;2024-01-06T08:27:20;99677.41;;;4.75;95.50
51297;BME280;37380;45.186;9.792;2024-01-06T08:29:48;99679.25;;;4.84;95.76
51297;BME280;37380;45.186;9.792;2024-01-06T08:32:16;99689.53;;;4.84;95.41
51297;BME280;37380;45.186;9.792;2024-01-06T08:34:43;99688.41;;;4.70;94.94
51297;BME280;37380;45.186;9.792;2024-01-06T08:37:10;99684.72;;;4.78;95.85
51297;BME280;37380;45.186;9.792;2024-01-06T08:39:37;99679.97;;;4.79;95.87
51297;BME280;37380;45.186;9.792;2024-01-06T08:42:05;99681.16;;;4.72;95.67
51297;BME280;37380;45.186;9.792;2024-01-06T08:44:32;99683.22;;;4.78;95.58
51297;BME280;37380;45.186;9.792;2024-01-06T08:46:59;99690.16;;;4.73;95.59
51297;BME280;37380;45.186;9.792;2024-01-06T08:49:26;99690.16;;;4.73;95.68
51297;BME280;37380;45.186;9.792;2024-01-06T08:51:53;99687.53;;;4.84;95.67
51297;BME280;37380;45.186;9.792;2024-01-06T08:54:20;99700.94;;;4.71;95.42
51297;BME280;37380;45.186;9.792;2024-01-06T08:56:47;99701.66;;;4.92;95.69
51297;BME280;37380;45.186;9.792;2024-01-06T08:59:14;99698.13;;;4.91;95.33
51297;BME280;37380;45.186;9.792;2024-01-06T09:01:41;99692.34;;;4.89;95.61
51297;BME280;37380;45.186;9.792;2024-01-06T09:04:09;99699.63;;;4.92;94.78
51297;BME280;37380;45.186;9.792;2024-01-06T09:06:38;99697.25;;;5.05;95.16
51297;BME280;37380;45.186;9.792;2024-01-06T09:09:05;99702.09;;;5.16;94.91
51297;BME280;37380;45.186;9.792;2024-01-06T09:11:32;99699.72;;;5.03;95.03
51297;BME280;37380;45.186;9.792;2024-01-06T09:13:59;99697.00;;;5.09;94.86
51297;BME280;37380;45.186;9.792;2024-01-06T09:16:27;99695.59;;;5.19;94.13
51297;BME280;37380;45.186;9.792;2024-01-06T09:18:54;99702.13;;;5.21;94.45
51297;BME280;37380;45.186;9.792;2024-01-06T09:21:21;99708.16;;;5.25;94.60
51297;BME280;37380;45.186;9.792;2024-01-06T09:23:48;99709.94;;;5.23;93.69
51297;BME280;37380;45.186;9.792;2024-01-06T09:26:16;99705.00;;;5.07;94.39
51297;BME280;37380;45.186;9.792;2024-01-06T09:28:43;99710.31;;;5.10;94.09
51297;BME280;37380;45.186;9.792;2024-01-06T09:31:10;99712.81;;;5.08;94.59
51297;BME280;37380;45.186;9.792;2024-01-06T09:33:37;99717.56;;;5.08;94.88
51297;BME280;37380;45.186;9.792;2024-01-06T09:36:05;99710.28;;;5.05;94.86
51297;BME280;37380;45.186;9.792;2024-01-06T09:38:32;99716.06;;;5.07;95.32
51297;BME280;37380;45.186;9.792;2024-01-06T09:41:00;99716.31;;;5.09;95.11
51297;BME280;37380;45.186;9.792;2024-01-06T09:43:27;99714.31;;;5.09;95.07
51297;BME280;37380;45.186;9.792;2024-01-06T09:46:09;99714.06;;;5.07;95.01
51297;BME280;37380;45.186;9.792;2024-01-06T09:48:40;99707.69;;;5.27;95.20
51297;BME280;37380;45.186;9.792;2024-01-06T09:51:10;99704.13;;;5.21;94.43
51297;BME280;37380;45.186;9.792;2024-01-06T09:53:49;99703.41;;;5.26;93.66
51297;BME280;37380;45.186;9.792;2024-01-06T09:56:16;99696.34;;;5.19;94.13
51297;BME280;37380;45.186;9.792;2024-01-06T09:58:44;99701.47;;;5.32;94.73
51297;BME280;37380;45.186;9.792;2024-01-06T10:01:11;99700.50;;;5.40;94.38
51297;BME280;37380;45.186;9.792;2024-01-06T10:03:39;99688.91;;;5.31;94.10
51297;BME280;37380;45.186;9.792;2024-01-06T10:06:06;99684.91;;;5.32;94.00
51297;BME280;37380;45.186;9.792;2024-01-06T10:08:35;99692.53;;;5.48;94.17
51297;BME280;37380;45.186;9.792;2024-01-06T10:11:02;99679.13;;;5.35;94.27
51297;BME280;37380;45.186;9.792;2024-01-06T10:13:29;99679.41;;;5.37;94.66
51297;BME280;37380;45.186;9.792;2024-01-06T10:15:56;99677.66;;;5.34;94.58
51297;BME280;37380;45.186;9.792;2024-01-06T10:18:25;99674.91;;;5.40;94.33
51297;BME280;37380;45.186;9.792;2024-01-06T10:20:54;99679.19;;;5.41;94.75
51297;BME280;37380;45.186;9.792;2024-01-06T10:23:26;99667.44;;;5.46;94.40
51297;BME280;37380;45.186;9.792;2024-01-06T10:25:54;99673.16;;;5.37;94.96
51297;BME280;37380;45.186;9.792;2024-01-06T10:28:25;99665.44;;;5.47;94.97
51297;BME280;37380;45.186;9.792;2024-01-06T10:30:53;99668.28;;;5.26;94.68
51297;BME280;37380;45.186;9.792;2024-01-06T10:33:22;99665.06;;;5.33;95.44
51297;BME280;37380;45.186;9.792;2024-01-06T10:35:49;99667.53;;;5.26;95.34
51297;BME280;37380;45.186;9.792;2024-01-06T10:38:17;99662.78;;;5.26;95.90
51297;BME280;37380;45.186;9.792;2024-01-06T10:40:57;99668.53;;;5.23;95.80
51297;BME280;37380;45.186;9.792;2024-01-06T10:43:26;99652.75;;;5.29;95.64
51297;BME280;37380;45.186;9.792;2024-01-06T10:45:56;99652.94;;;5.20;95.83
51297;BME280;37380;45.186;9.792;2024-01-06T10:48:25;99649.22;;;5.23;96.27
51297;BME280;37380;45.186;9.792;2024-01-06T10:50:54;99646.16;;;5.21;96.04
51297;BME280;37380;45.186;9.792;2024-01-06T10:53:21;99642.94;;;5.28;95.83
51297;BME280;37380;45.186;9.792;2024-01-06T10:55:52;99642.94;;;5.28;95.89
51297;BME280;37380;45.186;9.792;2024-01-06T10:58:22;99641.19;;;5.25;96.21
51297;BME280;37380;45.186;9.792;2024-01-06T11:00:49;99629.66;;;5.26;96.14
51297;BME280;37380;45.186;9.792;2024-01-06T11:03:17;99632.72;;;5.34;96.08
51297;BME280;37380;45.186;9.792;2024-01-06T11:05:44;99628.91;;;5.26;96.02
51297;BME280;37380;45.186;9.792;2024-01-06T11:08:12;99627.19;;;5.34;95.82
51297;BME280;37380;45.186;9.792;2024-01-06T11:10:40;99626.22;;;5.42;95.43
51297;BME280;37380;45.186;9.792;2024-01-06T11:13:12;99623.47;;;5.37;95.67
51297;BME280;37380;45.186;9.792;2024-01-06T11:15:44;99618.66;;;5.32;96.04
51297;BME280;37380;45.186;9.792;2024-01-06T11:23:41;99612.94;;;5.41;95.47
51297;BME280;37380;45.186;9.792;2024-01-06T11:26:08;99610.28;;;5.63;95.04
51297;BME280;37380;45.186;9.792;2024-01-06T11:28:46;99604.03;;;5.68;95.27
51297;BME280;37380;45.186;9.792;2024-01-06T11:31:13;99591.94;;;5.60;94.29
51297;BME280;37380;45.186;9.792;2024-01-06T11:33:43;99596.47;;;5.63;94.48
51297;BME280;37380;45.186;9.792;2024-01-06T11:36:11;99588.63;;;5.51;94.79
51297;BME280;37380;45.186;9.792;2024-01-06T11:38:41;99581.44;;;5.70;95.36
51297;BME280;37380;45.186;9.792;2024-01-06T11:41:08;99582.97;;;5.71;94.68
51297;BME280;37380;45.186;9.792;2024-01-06T11:43:38;99575.41;;;5.66;95.19
51297;BME280;37380;45.186;9.792;2024-01-06T11:46:08;99573.13;;;5.64;95.27
51297;BME280;37380;45.186;9.792;2024-01-06T11:48:36;99559.56;;;5.66;94.85
51297;BME280;37380;45.186;9.792;2024-01-06T11:51:03;99564.84;;;5.64;94.95
51297;BME280;37380;45.186;9.792;2024-01-06T11:53:31;99555.53;;;5.62;95.34
51297;BME280;37380;45.186;9.792;2024-01-06T11:55:59;99560.06;;;5.65;95.07
51297;BME280;37380;45.186;9.792;2024-01-06T11:58:27;99560.84;;;5.65;94.93
51297;BME280;37380;45.186;9.792;2024-01-06T12:00:55;99562.38;;;5.77;95.89
51297;BME280;37380;45.186;9.792;2024-01-06T12:03:24;99562.38;;;5.77;95.46
51297;BME280;37380;45.186;9.792;2024-01-06T12:06:02;99555.09;;;5.74;94.89
51297;BME280;37380;45.186;9.792;2024-01-06T12:08:30;99544.38;;;5.98;94.62
51297;BME280;37380;45.186;9.792;2024-01-06T12:11:04;99549.63;;;5.85;94.62
51297;BME280;37380;45.186;9.792;2024-01-06T12:13:32;99548.88;;;5.90;94.71
51297;BME280;37380;45.186;9.792;2024-01-06T12:15:59;99539.34;;;5.91;94.84
51297;BME280;37380;45.186;9.792;2024-01-06T12:18:27;99531.03;;;5.86;94.67
51297;BME280;37380;45.186;9.792;2024-01-06T12:20:54;99528.25;;;5.80;94.51
51297;BME280;37380;45.186;9.792;2024-01-06T12:23:27;99512.41;;;5.81;94.60
51297;BME280;37380;45.186;9.792;2024-01-06T12:26:00;99519.22;;;5.85;94.04
51297;BME280;37380;45.186;9.792;2024-01-06T12:28:27;99519.28;;;6.07;94.95
51297;BME280;37380;45.186;9.792;2024-01-06T12:30:54;99504.22;;;6.08;93.28
51297;BME280;37380;45.186;9.792;2024-01-06T12:33:21;99511.22;;;5.87;94.06
51297;BME280;37380;45.186;9.792;2024-01-06T12:35:48;99515.00;;;6.06;93.78
51297;BME280;37380;45.186;9.792;2024-01-06T12:38:19;99518.25;;;5.99;93.54
51297;BME280;37380;45.186;9.792;2024-01-06T12:40:46;99508.91;;;5.80;94.05
51297;BME280;37380;45.186;9.792;2024-01-06T12:43:13;99512.16;;;5.79;93.95
51297;BME280;37380;45.186;9.792;2024-01-06T12:45:41;99502.66;;;5.91;94.46
51297;BME280;37380;45.186;9.792;2024-01-06T12:48:08;99503.69;;;5.93;94.74
51297;BME280;37380;45.186;9.792;2024-01-06T12:50:35;99508.22;;;6.07;93.96
51297;BME280;37380;45.186;9.792;2024-01-06T12:53:03;99506.69;;;5.95;94.25
51297;BME280;37380;45.186;9.792;2024-01-06T12:55:30;99506.44;;;5.93;93.83
51297;BME280;37380;45.186;9.792;2024-01-06T12:57:57;99499.16;;;5.90;94.10
51297;BME280;37380;45.186;9.792;2024-01-06T13:00:27;99496.38;;;5.90;94.43
51297;BME280;37380;45.186;9.792;2024-01-06T13:02:55;99490.56;;;5.77;94.28
51297;BME280;37380;45.186;9.792;2024-01-06T13:05:22;99490.09;;;5.84;94.63
51297;BME280;37380;45.186;9.792;2024-01-06T13:07:49;99491.38;;;6.00;94.28
51297;BME280;37380;45.186;9.792;2024-01-06T13:10:17;99498.16;;;5.93;93.58
51297;BME280;37380;45.186;9.792;2024-01-06T13:12:44;99494.13;;;6.00;94.25
51297;BME280;37380;45.186;9.792;2024-01-06T13:15:11;99486.34;;;6.09;94.48
51297;BME280;37380;45.186;9.792;2024-01-06T13:17:38;99490.13;;;5.95;93.53
51297;BME280;37380;45.186;9.792;2024-01-06T13:20:06;99481.84;;;6.01;94.33